createdAt,value
2022-10-05T00:01:17.264Z,100593.85
2022-10-05T00:03:45.801Z,100597.27
2022-10-05T00:06:14.697Z,100598.70
2022-10-05T00:08:43.397Z,100600.33
2022-10-05T00:11:15.054Z,100601.34
2022-10-05T00:13:43.496Z,100601.55
2022-10-05T00:16:11.894Z,100599.80
2022-10-05T00:18:40.799Z,100595.26
2022-10-05T00:21:26.987Z,100598.73
2022-10-05T00:23:58.347Z,100603.13
2022-10-05T00:26:32.549Z,100602.71
2022-10-05T00:29:02.885Z,100604.48
2022-10-05T00:31:35.813Z,100606.19
2022-10-05T00:34:04.337Z,100609.85
2022-10-05T00:36:33.039Z,100607.52
2022-10-05T00:39:03.059Z,100613.29
2022-10-05T00:41:55.788Z,100620.48
2022-10-05T00:44:52.837Z,100623.95
2022-10-05T00:48:17.328Z,100620.67
2022-10-05T00:51:13.138Z,100619.27
2022-10-05T00:53:56.122Z,100619.80
2022-10-05T00:56:39.626Z,100620.05
2022-10-05T00:59:25.805Z,100620.27
2022-10-05T01:02:51.898Z,100623.46
2022-10-05T01:05:35.164Z,100625.11
2022-10-05T01:08:24.565Z,100629.78
2022-10-05T01:11:59.162Z,100635.03
2022-10-05T01:14:39.664Z,100639.14
2022-10-05T01:17:26.555Z,100643.89
2022-10-05T01:20:03.925Z,100647.18
2022-10-05T01:23:11.645Z,100646.47
2022-10-05T01:26:15.129Z,100645.64
2022-10-05T01:29:02.682Z,100644.95
2022-10-05T01:31:52.373Z,100645.21
2022-10-05T01:34:32.680Z,100645.63
2022-10-05T01:37:32.733Z,100647.42
2022-10-05T01:40:35.117Z,100649.95
2022-10-05T01:43:23.178Z,100656.83
2022-10-05T01:46:25.024Z,100658.32
2022-10-05T01:49:12.309Z,100658.70
2022-10-05T01:52:27.286Z,100662.64
2022-10-05T01:55:38.483Z,100667.30
2022-10-05T01:58:22.718Z,100675.39
2022-10-05T02:01:18.297Z,100675.21
2022-10-05T02:04:59.948Z,100677.70
2022-10-05T02:07:34.268Z,100676.21
2022-10-05T02:10:24.736Z,100683.06
2022-10-05T02:13:04.708Z,100683.38
2022-10-05T02:15:43.751Z,100686.42
2022-10-05T02:18:30.641Z,100689.45
2022-10-05T02:21:03.188Z,100696.55
2022-10-05T02:23:36.628Z,100697.79
2022-10-05T02:26:08.773Z,100703.20
2022-10-05T02:28:47.905Z,100704.33
2022-10-05T02:31:24.426Z,100706.67
2022-10-05T02:33:52.813Z,100708.48
2022-10-05T02:36:36.285Z,100712.71
2022-10-05T02:39:33.351Z,100713.77
2022-10-05T02:42:33.449Z,100717.83
2022-10-05T02:45:14.629Z,100718.11
2022-10-05T02:48:17.465Z,100720.67
2022-10-05T02:51:21.700Z,100716.38
2022-10-05T02:54:17.637Z,100716.39
2022-10-05T02:57:10.310Z,100717.80
2022-10-05T02:59:58.471Z,100717.84
2022-10-05T03:02:36.560Z,100720.04
2022-10-05T03:05:17.039Z,100723.58
2022-10-05T03:08:11.530Z,100726.95
2022-10-05T03:11:08.202Z,100732.25
2022-10-05T03:14:04.381Z,100739.88
2022-10-05T03:17:15.218Z,100740.04
2022-10-05T03:20:30.451Z,100742.24
2022-10-05T03:23:03.109Z,100745.73
2022-10-05T03:26:08.866Z,100744.22
2022-10-05T03:28:50.062Z,100743.77
2022-10-05T03:32:01.653Z,100748.37
2022-10-05T03:35:05.772Z,100749.54
2022-10-05T03:38:03.208Z,100749.26
2022-10-05T03:40:56.082Z,100748.55
2022-10-05T03:43:27.642Z,100749.66
2022-10-05T03:46:30.844Z,100749.67
2022-10-05T03:49:43.321Z,100754.95
2022-10-05T03:52:23.689Z,100751.13
2022-10-05T03:55:47.745Z,100751.83
2022-10-05T03:58:41.662Z,100746.33
2022-10-05T04:01:17.441Z,100750.52
2022-10-05T04:03:52.665Z,100750.73
2022-10-05T04:06:38.748Z,100751.59
2022-10-05T04:09:25.315Z,100752.50
2022-10-05T04:12:22.869Z,100756.89
2022-10-05T04:15:22.509Z,100762.95
2022-10-05T04:18:06.185Z,100762.20
2022-10-05T04:20:53.713Z,100764.02
2022-10-05T04:23:39.605Z,100763.06
2022-10-05T04:26:19.598Z,100771.15
2022-10-05T04:29:01.326Z,100775.60
2022-10-05T04:32:12.467Z,100775.96
2022-10-05T04:35:11.457Z,100776.20
2022-10-05T04:38:11.063Z,100777.28
2022-10-05T04:41:09.178Z,100778.95
2022-10-05T04:43:49.514Z,100780.73
2022-10-05T04:46:25.114Z,100785.83
2022-10-05T04:49:29.953Z,100788.32
2022-10-05T04:52:01.837Z,100794.09
2022-10-05T04:54:39.838Z,100800.92
2022-10-05T04:57:17.164Z,100796.64
2022-10-05T05:00:20.577Z,100801.95
2022-10-05T05:03:10.813Z,100798.77
2022-10-05T05:06:15.288Z,100800.79
2022-10-05T05:08:49.856Z,100801.84
2022-10-05T05:11:39.790Z,100803.58
2022-10-05T05:14:27.235Z,100800.66
2022-10-05T05:17:05.511Z,100798.80
2022-10-05T05:20:07.880Z,100804.75
2022-10-05T05:22:45.091Z,100807.95
2022-10-05T05:25:29.061Z,100807.03
2022-10-05T05:28:10.938Z,100812.59
2022-10-05T05:30:44.988Z,100819.27
2022-10-05T05:33:27.593Z,100816.70
2022-10-05T05:36:06.979Z,100820.43
2022-10-05T05:39:14.225Z,100821.63
2022-10-05T05:41:52.820Z,100823.73
2022-10-05T05:44:38.438Z,100819.96
2022-10-05T05:47:43.866Z,100826.63
2022-10-05T05:50:51.370Z,100823.88
2022-10-05T05:53:50.970Z,100824.59
2022-10-05T05:56:52.607Z,100824.66
2022-10-05T05:59:44.326Z,100829.54
2022-10-05T06:02:20.479Z,100832.42
2022-10-05T06:06:02.238Z,100832.77
2022-10-05T06:08:57.021Z,100835.19
2022-10-05T06:11:51.304Z,100841.30
2022-10-05T06:14:49.937Z,100843.23
2022-10-05T06:17:49.014Z,100855.67
2022-10-05T06:20:37.417Z,100854.61
2022-10-05T06:23:24.014Z,100859.60
2022-10-05T06:26:24.979Z,100868.64
2022-10-05T06:29:05.989Z,100874.19
2022-10-05T06:31:46.265Z,100874.35
2022-10-05T06:34:31.340Z,100873.17
2022-10-05T06:37:13.086Z,100879.39
2022-10-05T06:40:14.128Z,100883.54
2022-10-05T06:42:55.296Z,100888.73
2022-10-05T06:46:04.370Z,100892.23
2022-10-05T06:48:57.478Z,100889.14
2022-10-05T06:53:02.098Z,100899.39
2022-10-05T06:56:02.401Z,100905.23
2022-10-05T06:59:09.338Z,100899.24
2022-10-05T07:01:56.718Z,100907.30
2022-10-05T07:04:56.310Z,100906.70
2022-10-05T07:07:53.339Z,100912.77
2022-10-05T07:10:48.143Z,100917.29
2022-10-05T07:13:47.314Z,100924.54
2022-10-05T07:16:35.139Z,100920.90
2022-10-05T07:19:34.078Z,100919.04
2022-10-05T07:22:35.401Z,100917.32
2022-10-05T07:25:23.607Z,100919.88
2022-10-05T07:28:28.338Z,100921.30
2022-10-05T07:31:33.654Z,100922.56
2022-10-05T07:34:32.523Z,100922.56
2022-10-05T07:37:28.889Z,100920.52
2022-10-05T07:40:10.297Z,100914.33
2022-10-05T07:43:07.743Z,100922.34
2022-10-05T07:46:07.440Z,100923.84
2022-10-05T07:48:46.133Z,100924.91
2022-10-05T07:51:36.965Z,100928.88
2022-10-05T07:54:28.419Z,100928.56
2022-10-05T07:57:25.079Z,100924.04
2022-10-05T08:00:11.568Z,100928.73
2022-10-05T08:02:54.370Z,100926.77
2022-10-05T08:05:31.050Z,100934.52
2022-10-05T08:08:35.901Z,100931.07
2022-10-05T08:11:35.933Z,100929.20
2022-10-05T08:14:34.025Z,100931.41
2022-10-05T08:17:21.677Z,100923.08
2022-10-05T08:20:34.074Z,100921.25
2022-10-05T08:23:17.669Z,100918.20
2022-10-05T08:26:30.340Z,100924.48
2022-10-05T08:29:16.766Z,100918.19
2022-10-05T08:31:50.470Z,100914.63
2022-10-05T08:34:49.265Z,100923.65
2022-10-05T08:37:24.683Z,100917.83
2022-10-05T08:40:19.418Z,100918.39
2022-10-05T08:43:09.958Z,100922.97
2022-10-05T08:45:44.415Z,100903.30
2022-10-05T08:48:37.475Z,100900.39
2022-10-05T08:51:51.969Z,100904.42
2022-10-05T08:54:41.576Z,100904.24
2022-10-05T08:57:51.865Z,100910.15
2022-10-05T09:00:22.803Z,100910.67
2022-10-05T09:03:21.676Z,100916.91
2022-10-05T09:06:05.109Z,100917.25
2022-10-05T09:09:14.496Z,100915.08
2022-10-05T09:11:48.969Z,100927.45
2022-10-05T09:14:45.155Z,100933.23
2022-10-05T09:17:39.521Z,100943.05
2022-10-05T09:20:17.191Z,100941.58
2022-10-05T09:22:55.526Z,100945.82
2022-10-05T09:25:45.681Z,100939.93
2022-10-05T09:28:23.635Z,100931.96
2022-10-05T09:31:36.504Z,100942.59
2022-10-05T09:34:19.695Z,100942.64
2022-10-05T09:36:48.012Z,100939.08
2022-10-05T09:40:10.168Z,100929.46
2022-10-05T09:43:16.769Z,100937.09
2022-10-05T09:46:16.079Z,100936.87
2022-10-05T09:49:31.052Z,100933.42
2022-10-05T09:52:44.305Z,100912.46
2022-10-05T09:55:43.567Z,100901.07
2022-10-05T09:58:49.889Z,100899.31
2022-10-05T10:01:35.599Z,100898.14
2022-10-05T10:04:19.224Z,100900.16
2022-10-05T10:07:17.996Z,100907.69
2022-10-05T10:10:13.586Z,100916.36
2022-10-05T10:13:06.558Z,100916.99
2022-10-05T10:15:40.883Z,100918.14
2022-10-05T10:18:50.351Z,100914.34
2022-10-05T10:21:34.766Z,100923.31
2022-10-05T10:24:28.036Z,100919.31
2022-10-05T10:27:52.627Z,100914.11
2022-10-05T10:30:46.420Z,100907.31
2022-10-05T10:33:57.699Z,100910.34
2022-10-05T10:36:52.542Z,100904.73
2022-10-05T10:39:22.185Z,100898.89
2022-10-05T10:42:43.566Z,100900.67
2022-10-05T10:45:28.943Z,100891.95
2022-10-05T10:48:20.595Z,100892.46
2022-10-05T10:51:47.457Z,100898.36
2022-10-05T10:54:53.371Z,100895.38
2022-10-05T10:57:52.328Z,100889.67
2022-10-05T11:01:14.200Z,100886.33
2022-10-05T11:03:51.525Z,100889.27
2022-10-05T11:06:53.049Z,100880.51
2022-10-05T11:09:31.870Z,100881.36
2022-10-05T11:12:36.046Z,100880.22
2022-10-05T11:15:39.503Z,100871.81
2022-10-05T11:18:29.803Z,100862.30
2022-10-05T11:21:36.740Z,100860.98
2022-10-05T11:24:25.896Z,100852.22
2022-10-05T11:27:09.630Z,100850.98
2022-10-05T11:30:02.832Z,100848.19
2022-10-05T11:33:06.445Z,100845.14
2022-10-05T11:36:02.513Z,100839.38
2022-10-05T11:39:08.407Z,100835.35
2022-10-05T11:42:12.215Z,100836.61
2022-10-05T11:45:07.571Z,100830.84
2022-10-05T11:48:20.684Z,100836.08
2022-10-05T11:51:30.117Z,100837.14
2022-10-05T11:54:05.653Z,100846.25
2022-10-05T11:56:43.003Z,100841.09
2022-10-05T12:00:12.499Z,100842.93
2022-10-05T12:03:09.563Z,100841.05
2022-10-05T12:06:18.162Z,100844.66
2022-10-05T12:10:09.461Z,100849.30
2022-10-05T12:13:06.549Z,100849.30
2022-10-05T12:15:45.653Z,100841.16
2022-10-05T12:18:32.717Z,100840.64
2022-10-05T12:21:33.257Z,100843.36
2022-10-05T12:24:27.392Z,100850.72
2022-10-05T12:27:21.999Z,100846.77
2022-10-05T12:30:14.363Z,100844.67
2022-10-05T12:33:04.629Z,100844.16
2022-10-05T12:36:01.261Z,100841.00
2022-10-05T12:38:52.098Z,100835.11
2022-10-05T12:41:36.939Z,100834.19
2022-10-05T12:44:09.458Z,100832.15
2022-10-05T12:47:19.550Z,100824.73
2022-10-05T12:50:14.778Z,100823.11
2022-10-05T12:52:58.160Z,100820.90
2022-10-05T12:56:08.969Z,100826.23
2022-10-05T12:59:05.006Z,100824.70
2022-10-05T13:01:43.861Z,100827.09
2022-10-05T13:04:27.304Z,100834.73
2022-10-05T13:07:22.954Z,100835.05
2022-10-05T13:10:15.978Z,100834.23
2022-10-05T13:13:02.338Z,100837.19
2022-10-05T13:16:04.853Z,100841.31
2022-10-05T13:18:51.246Z,100846.55
2022-10-05T13:21:21.373Z,100842.76
2022-10-05T13:24:04.577Z,100839.30
2022-10-05T13:26:36.641Z,100831.30
2022-10-05T13:29:33.421Z,100832.00
2022-10-05T13:32:23.745Z,100828.34
2022-10-05T13:34:58.257Z,100830.44
2022-10-05T13:37:48.567Z,100835.42
2022-10-05T13:40:33.438Z,100831.36
2022-10-05T13:43:44.187Z,100827.92
2022-10-05T13:46:44.477Z,100828.52
2022-10-05T13:50:19.250Z,100829.01
2022-10-05T13:53:26.614Z,100827.10
2022-10-05T13:55:57.822Z,100821.98
2022-10-05T13:58:56.265Z,100822.27
2022-10-05T14:01:41.913Z,100823.46
2022-10-05T14:04:17.255Z,100825.67
2022-10-05T14:06:46.008Z,100824.59
2022-10-05T14:09:35.722Z,100818.63
2022-10-05T14:12:04.087Z,100826.33
2022-10-05T14:14:42.625Z,100826.31
2022-10-05T14:17:42.941Z,100825.73
2022-10-05T14:20:37.149Z,100826.41
2022-10-05T14:23:25.068Z,100827.11
2022-10-05T14:25:54.766Z,100822.33
2022-10-05T14:28:38.621Z,100819.55
2022-10-05T14:31:15.756Z,100819.20
2022-10-05T14:33:45.357Z,100815.61
2022-10-05T14:36:36.067Z,100814.05
2022-10-05T14:39:13.422Z,100816.18
2022-10-05T14:41:50.735Z,100815.14
2022-10-05T14:47:23.598Z,100816.58
2022-10-05T14:50:14.107Z,100814.13
2022-10-05T14:53:25.142Z,100826.16
2022-10-05T14:55:57.233Z,100827.15
2022-10-05T14:59:15.722Z,100829.73
2022-10-05T15:02:19.152Z,100827.34
2022-10-05T15:05:04.200Z,100822.22
2022-10-05T15:07:44.224Z,100821.43
2022-10-05T15:10:50.124Z,100825.77
2022-10-05T15:13:44.297Z,100825.23
2022-10-05T15:16:25.075Z,100830.96
2022-10-05T15:20:00.692Z,100834.80
2022-10-05T15:23:14.089Z,100838.71
2022-10-05T15:26:15.705Z,100843.79
2022-10-05T15:29:06.395Z,100848.18
2022-10-05T15:31:51.648Z,100854.11
2022-10-05T15:34:39.080Z,100857.22
2022-10-05T15:37:53.953Z,100863.06
2022-10-05T15:40:51.757Z,100858.16
2022-10-05T15:43:23.522Z,100862.31
2022-10-05T15:46:17.230Z,100857.77
2022-10-05T15:49:10.727Z,100863.14
2022-10-05T15:51:52.940Z,100854.77
2022-10-05T15:55:20.086Z,100852.75
2022-10-05T15:58:25.853Z,100847.19
2022-10-05T16:01:18.720Z,100849.98
2022-10-05T16:04:35.681Z,100858.15
2022-10-05T16:07:28.306Z,100854.70
2022-10-05T16:10:14.505Z,100851.16
2022-10-05T16:13:12.603Z,100853.16
2022-10-05T16:15:48.776Z,100852.83
2022-10-05T16:18:18.625Z,100853.96
2022-10-05T16:21:34.829Z,100850.46
2022-10-05T16:24:10.733Z,100850.61
2022-10-05T16:26:47.887Z,100855.27
2022-10-05T16:29:22.874Z,100857.22
2022-10-05T16:32:33.161Z,100857.64
2022-10-05T16:35:23.938Z,100860.44
2022-10-05T16:38:42.650Z,100863.80
2022-10-05T16:41:35.738Z,100863.50
2022-10-05T16:44:34.785Z,100863.56
2022-10-05T16:47:32.667Z,100862.05
2022-10-05T16:50:23.918Z,100860.19
2022-10-05T16:53:10.099Z,100857.73
2022-10-05T16:55:46.838Z,100847.67
2022-10-05T16:58:27.549Z,100850.60
2022-10-05T17:01:33.388Z,100852.81
2022-10-05T17:04:27.968Z,100855.15
2022-10-05T17:07:44.306Z,100856.73
2022-10-05T17:10:40.495Z,100855.70
2022-10-05T17:13:30.675Z,100855.96
2022-10-05T17:16:34.782Z,100854.66
2022-10-05T17:19:39.534Z,100854.99
2022-10-05T17:22:29.287Z,100859.67
2022-10-05T17:25:13.561Z,100860.71
2022-10-05T17:28:15.240Z,100865.20
2022-10-05T17:31:23.569Z,100868.96
2022-10-05T17:34:26.466Z,100875.40
2022-10-05T17:37:14.776Z,100879.04
2022-10-05T17:39:56.107Z,100875.01
2022-10-05T17:42:30.340Z,100884.76
2022-10-05T17:45:20.590Z,100890.77
2022-10-05T17:48:10.706Z,100894.61
2022-10-05T17:51:08.330Z,100897.27
2022-10-05T17:54:04.008Z,100897.14
2022-10-05T17:56:59.094Z,100899.29
2022-10-05T17:59:49.381Z,100901.56
2022-10-05T18:02:20.254Z,100902.52
2022-10-05T18:05:14.610Z,100899.48
2022-10-05T18:07:48.892Z,100897.23
2022-10-05T18:10:30.329Z,100894.88
2022-10-05T18:13:01.668Z,100890.02
2022-10-05T18:15:31.450Z,100893.25
2022-10-05T18:18:34.279Z,100894.85
2022-10-05T18:21:32.545Z,100891.09
2022-10-05T18:24:27.346Z,100887.20
2022-10-05T18:27:34.388Z,100891.44
2022-10-05T18:30:24.214Z,100891.35
2022-10-05T18:33:39.185Z,100890.39
2022-10-05T18:36:29.960Z,100883.52
2022-10-05T18:39:20.806Z,100884.89
2022-10-05T18:42:20.641Z,100876.27
2022-10-05T18:45:02.927Z,100876.19
2022-10-05T18:47:59.848Z,100882.19
2022-10-05T18:50:54.103Z,100884.34
2022-10-05T18:53:37.389Z,100884.08
2022-10-05T18:56:49.070Z,100884.98
2022-10-05T18:59:42.036Z,100887.13
2022-10-05T19:02:31.124Z,100869.30
2022-10-05T19:05:47.828Z,100884.33
2022-10-05T19:09:10.345Z,100891.08
2022-10-05T19:11:51.434Z,100894.18
2022-10-05T19:14:31.809Z,100889.51
2022-10-05T19:17:48.899Z,100889.73
2022-10-05T19:20:59.899Z,100887.95
2022-10-05T19:24:12.432Z,100890.02
2022-10-05T19:27:15.021Z,100894.74
2022-10-05T19:30:10.551Z,100895.93
2022-10-05T19:33:28.697Z,100892.73
2022-10-05T19:36:15.284Z,100892.02
2022-10-05T19:39:42.373Z,100892.63
2022-10-05T19:42:46.459Z,100894.98
2022-10-05T19:45:27.085Z,100894.52
2022-10-05T19:48:27.416Z,100899.06
2022-10-05T19:50:59.926Z,100894.67
2022-10-05T19:53:51.563Z,100896.65
2022-10-05T19:56:26.167Z,100892.19
2022-10-05T19:58:59.830Z,100901.58
2022-10-05T20:01:42.153Z,100899.33
2022-10-05T20:04:10.808Z,100903.54
2022-10-05T20:06:39.953Z,100899.30
2022-10-05T20:09:22.189Z,100899.52
2022-10-05T20:11:57.196Z,100893.30
2022-10-05T20:14:34.077Z,100894.36
2022-10-05T20:17:35.852Z,100894.38
2022-10-05T20:20:31.467Z,100893.14
2022-10-05T20:23:23.892Z,100898.33
2022-10-05T20:26:11.325Z,100898.13
2022-10-05T20:28:39.835Z,100895.02
2022-10-05T20:31:08.865Z,100896.89
2022-10-05T20:33:37.374Z,100892.73
2022-10-05T20:36:05.986Z,100898.14
2022-10-05T20:38:40.641Z,100897.69
2022-10-05T20:41:09.574Z,100899.46
2022-10-05T20:43:39.580Z,100900.46
2022-10-05T20:46:08.092Z,100901.06
2022-10-05T20:48:49.166Z,100905.63
2022-10-05T20:51:19.592Z,100904.52
2022-10-05T20:53:47.921Z,100897.08
2022-10-05T20:56:16.328Z,100892.10
2022-10-05T20:58:44.704Z,100878.80
2022-10-05T21:01:16.275Z,100877.61
2022-10-05T21:03:44.949Z,100879.41
2022-10-05T21:06:13.550Z,100878.95
2022-10-05T21:08:42.013Z,100877.39
2022-10-05T21:11:10.349Z,100874.33
2022-10-05T21:13:44.912Z,100872.08
2022-10-05T21:16:17.573Z,100873.00
2022-10-05T21:18:49.039Z,100872.84
2022-10-05T21:21:18.564Z,100877.89
2022-10-05T21:23:47.957Z,100879.52
2022-10-05T21:26:16.755Z,100876.83
2022-10-05T21:28:45.420Z,100873.92
2022-10-05T21:31:13.980Z,100876.88
2022-10-05T21:33:42.381Z,100876.76
2022-10-05T21:36:11.244Z,100874.78
2022-10-05T21:38:39.671Z,100870.54
2022-10-05T21:41:11.940Z,100869.75
2022-10-05T21:43:40.615Z,100863.77
2022-10-05T21:46:14.715Z,100852.44
2022-10-05T21:48:44.149Z,100841.81
2022-10-05T21:51:16.746Z,100838.44
2022-10-05T21:53:57.060Z,100842.89
2022-10-05T21:56:31.650Z,100840.66
2022-10-05T21:59:03.138Z,100838.08
2022-10-05T22:01:31.778Z,100833.84
2022-10-05T22:04:00.189Z,100835.63
2022-10-05T22:06:28.902Z,100830.89
2022-10-05T22:08:57.383Z,100830.07
2022-10-05T22:11:28.141Z,100835.90
2022-10-05T22:14:02.745Z,100835.15
2022-10-05T22:16:35.448Z,100835.13
2022-10-05T22:19:06.725Z,100835.23
2022-10-05T22:21:41.799Z,100841.17
2022-10-05T22:24:11.823Z,100845.17
2022-10-05T22:26:44.297Z,100850.81
2022-10-05T22:29:14.904Z,100849.77
2022-10-05T22:31:44.970Z,100855.33
2022-10-05T22:34:14.036Z,100856.91
2022-10-05T22:36:42.805Z,100857.00
2022-10-05T22:39:11.613Z,100856.88
2022-10-05T22:41:40.029Z,100862.48
2022-10-05T22:44:08.472Z,100865.77
2022-10-05T22:46:36.937Z,100864.99
2022-10-05T22:49:05.412Z,100861.38
2022-10-05T22:51:33.661Z,100860.34
2022-10-05T22:54:02.197Z,100870.73
2022-10-05T22:56:30.759Z,100875.80
2022-10-05T22:58:59.359Z,100867.77
2022-10-05T23:01:27.973Z,100859.95
2022-10-05T23:03:57.548Z,100853.42
2022-10-05T23:06:26.825Z,100845.59
2022-10-05T23:08:55.502Z,100841.20
2022-10-05T23:11:27.173Z,100836.42
2022-10-05T23:13:57.164Z,100836.99
2022-10-05T23:16:28.682Z,100844.55
2022-10-05T23:18:58.546Z,100845.39
2022-10-05T23:21:30.007Z,100840.69
2022-10-05T23:23:58.361Z,100841.03
2022-10-05T23:26:27.078Z,100833.64
2022-10-05T23:28:55.551Z,100830.86
2022-10-05T23:31:30.996Z,100825.52
2022-10-05T23:33:59.697Z,100825.92
2022-10-05T23:36:33.094Z,100827.27
2022-10-05T23:39:01.552Z,100824.45
2022-10-05T23:41:30.032Z,100818.56
2022-10-05T23:43:58.409Z,100814.98
2022-10-05T23:46:27.122Z,100814.59
2022-10-05T23:48:55.699Z,100808.98
2022-10-05T23:51:24.183Z,100807.88
2022-10-05T23:53:52.659Z,100808.16
2022-10-05T23:56:21.330Z,100816.67
2022-10-05T23:58:49.709Z,100817.00
